createdAt,value
2024-03-23T00:00:56.995Z,5.98
2024-03-23T00:03:33.056Z,5.96
2024-03-23T00:06:01.711Z,5.97
2024-03-23T00:08:30.565Z,5.96
2024-03-23T00:10:58.849Z,5.97
2024-03-23T00:13:27.071Z,5.97
2024-03-23T00:15:55.758Z,5.97
2024-03-23T00:18:25.315Z,5.98
2024-03-23T00:20:55.625Z,5.99
2024-03-23T00:23:24.432Z,6.02
2024-03-23T00:25:53.267Z,6.04
2024-03-23T00:28:21.455Z,6.12
2024-03-23T00:30:49.646Z,6.20
2024-03-23T00:33:17.838Z,6.24
2024-03-23T00:35:46.553Z,6.25
2024-03-23T00:38:15.067Z,6.29
2024-03-23T00:40:43.407Z,6.30
2024-03-23T00:43:11.790Z,6.31
2024-03-23T00:45:40.972Z,6.32
2024-03-23T00:48:09.581Z,6.31
2024-03-23T00:50:38.783Z,6.32
2024-03-23T00:53:06.958Z,6.31
2024-03-23T00:55:35.267Z,6.30
2024-03-23T00:58:03.512Z,6.28
2024-03-23T01:00:31.836Z,6.25
2024-03-23T01:03:00.195Z,6.21
2024-03-23T01:05:28.310Z,6.17
2024-03-23T01:07:57.339Z,6.15
2024-03-23T01:10:25.516Z,6.13
2024-03-23T01:12:54.039Z,6.06
2024-03-23T01:15:22.763Z,6.04
2024-03-23T01:17:50.892Z,6.02
2024-03-23T01:20:18.996Z,5.95
2024-03-23T01:22:47.071Z,5.81
2024-03-23T01:25:15.664Z,5.76
2024-03-23T01:27:44.266Z,5.73
2024-03-23T01:30:12.539Z,5.71
2024-03-23T01:32:40.615Z,5.66
2024-03-23T01:35:09.207Z,5.57
2024-03-23T01:37:37.265Z,5.48
2024-03-23T01:40:06.368Z,5.42
2024-03-23T01:42:34.652Z,5.41
2024-03-23T01:45:03.365Z,5.40
2024-03-23T01:47:31.666Z,5.41
2024-03-23T01:50:00.566Z,5.41
2024-03-23T01:52:29.547Z,5.40
2024-03-23T01:54:57.917Z,5.38
2024-03-23T01:57:26.674Z,5.36
2024-03-23T01:59:54.841Z,5.30
2024-03-23T02:02:25.608Z,5.26
2024-03-23T02:04:53.880Z,5.22
2024-03-23T02:07:21.908Z,5.18
2024-03-23T02:09:50.592Z,5.13
2024-03-23T02:12:19.754Z,5.10
2024-03-23T02:14:47.879Z,5.09
2024-03-23T02:17:15.985Z,5.10
2024-03-23T02:19:44.043Z,5.08
2024-03-23T02:22:12.677Z,5.06
2024-03-23T02:24:41.181Z,5.04
2024-03-23T02:27:09.965Z,5.03
2024-03-23T02:29:38.270Z,5.01
2024-03-23T02:32:07.361Z,4.98
2024-03-23T02:34:35.650Z,4.95
2024-03-23T02:37:03.892Z,4.92
2024-03-23T02:39:32.211Z,4.88
2024-03-23T02:42:00.565Z,4.85
2024-03-23T02:44:28.649Z,4.81
2024-03-23T02:46:56.864Z,4.78
2024-03-23T02:49:25.099Z,4.79
2024-03-23T02:51:53.279Z,4.80
2024-03-23T02:54:21.940Z,4.81
2024-03-23T02:56:50.501Z,4.80
2024-03-23T02:59:18.790Z,4.79
2024-03-23T03:01:47.050Z,4.80
2024-03-23T03:04:15.222Z,4.82
2024-03-23T03:06:43.690Z,4.76
2024-03-23T03:09:11.814Z,4.67
2024-03-23T03:11:39.878Z,4.62
2024-03-23T03:14:09.035Z,4.60
2024-03-23T03:16:37.305Z,4.55
2024-03-23T03:19:05.839Z,4.50
2024-03-23T03:21:34.072Z,4.45
2024-03-23T03:24:03.082Z,4.42
2024-03-23T03:26:31.382Z,4.39
2024-03-23T03:28:59.517Z,4.35
2024-03-23T03:31:28.058Z,4.31
2024-03-23T03:33:56.404Z,4.28
2024-03-23T03:36:24.939Z,4.27
2024-03-23T03:38:53.203Z,4.27
2024-03-23T03:41:21.405Z,4.26
2024-03-23T03:43:50.023Z,4.27
2024-03-23T03:46:18.724Z,4.24
2024-03-23T03:48:49.104Z,4.21
2024-03-23T03:51:17.443Z,4.19
2024-03-23T03:53:45.660Z,4.18
2024-03-23T03:56:14.194Z,4.17
2024-03-23T03:58:42.292Z,4.17
2024-03-23T04:01:10.647Z,4.14
2024-03-23T04:03:41.078Z,4.12
2024-03-23T04:06:09.378Z,4.08
2024-03-23T04:08:37.735Z,4.05
2024-03-23T04:11:06.635Z,4.07
2024-03-23T04:13:35.245Z,4.09
2024-03-23T04:16:03.880Z,4.08
2024-03-23T04:18:31.998Z,4.08
2024-03-23T04:21:00.281Z,4.11
2024-03-23T04:23:28.493Z,4.14
2024-03-23T04:25:57.191Z,4.08
2024-03-23T04:28:25.416Z,3.97
2024-03-23T04:30:53.748Z,3.98
2024-03-23T04:33:21.835Z,3.96
2024-03-23T04:35:53.233Z,3.90
2024-03-23T04:38:21.715Z,3.88
2024-03-23T04:41:00.477Z,3.96
2024-03-23T04:43:29.767Z,4.05
2024-03-23T04:45:57.929Z,4.12
2024-03-23T04:48:26.594Z,4.17
2024-03-23T04:50:59.303Z,4.22
2024-03-23T04:53:29.640Z,4.20
2024-03-23T04:55:58.440Z,4.16
2024-03-23T04:58:26.613Z,4.16
2024-03-23T05:00:56.458Z,4.17
2024-03-23T05:03:25.329Z,4.18
2024-03-23T05:05:54.172Z,4.27
2024-03-23T05:08:22.658Z,4.35
2024-03-23T05:10:50.842Z,4.43
2024-03-23T05:13:19.269Z,4.46
2024-03-23T05:15:55.942Z,4.50
2024-03-23T05:18:24.085Z,4.59
2024-03-23T05:20:58.727Z,4.64
2024-03-23T05:23:29.266Z,4.61
2024-03-23T05:25:57.522Z,4.60
2024-03-23T05:28:25.914Z,4.63
2024-03-23T05:30:55.358Z,4.71
2024-03-23T05:33:24.303Z,4.82
2024-03-23T05:36:00.076Z,4.93
2024-03-23T05:38:29.221Z,5.03
2024-03-23T05:40:58.814Z,5.17
2024-03-23T05:43:28.596Z,5.29
2024-03-23T05:45:58.239Z,5.36
2024-03-23T05:48:27.636Z,5.47
2024-03-23T05:50:55.868Z,5.55
2024-03-23T05:53:25.484Z,5.64
2024-03-23T05:56:02.329Z,5.73
2024-03-23T05:58:30.926Z,5.78
2024-03-23T06:01:03.391Z,5.82
2024-03-23T06:03:31.821Z,5.88
2024-03-23T06:06:00.647Z,5.94
2024-03-23T06:08:28.903Z,5.95
2024-03-23T06:10:57.414Z,6.01
2024-03-23T06:13:31.087Z,6.06
2024-03-23T06:15:59.863Z,6.09
2024-03-23T06:18:29.062Z,6.15
2024-03-23T06:20:57.415Z,6.23
2024-03-23T06:23:25.695Z,6.32
2024-03-23T06:25:54.315Z,6.27
2024-03-23T06:28:22.934Z,6.23
2024-03-23T06:30:51.510Z,6.25
2024-03-23T06:33:19.635Z,6.25
2024-03-23T06:35:54.402Z,6.19
2024-03-23T06:38:22.508Z,6.17
2024-03-23T06:40:52.297Z,6.15
2024-03-23T06:43:21.037Z,6.15
2024-03-23T06:45:56.168Z,6.20
2024-03-23T06:48:25.393Z,6.30
2024-03-23T06:51:00.680Z,6.45
2024-03-23T06:53:28.879Z,6.56
2024-03-23T06:55:57.841Z,6.60
2024-03-23T06:58:26.421Z,6.50
2024-03-23T07:00:54.609Z,6.51
2024-03-23T07:03:23.312Z,6.48
2024-03-23T07:05:51.693Z,6.47
2024-03-23T07:08:23.418Z,6.60
2024-03-23T07:10:52.179Z,6.90
2024-03-23T07:13:20.868Z,7.33
2024-03-23T07:15:59.691Z,7.77
2024-03-23T07:18:28.271Z,8.25
2024-03-23T07:21:00.353Z,8.52
2024-03-23T07:23:28.618Z,8.65
2024-03-23T07:26:06.042Z,8.87
2024-03-23T07:28:35.819Z,9.28
2024-03-23T07:31:05.694Z,9.66
2024-03-23T07:33:36.814Z,9.84
2024-03-23T07:36:07.095Z,9.96
2024-03-23T07:38:35.308Z,9.99
2024-03-23T07:41:08.232Z,10.24
2024-03-23T07:43:38.541Z,10.51
2024-03-23T07:46:08.845Z,10.56
2024-03-23T07:48:37.650Z,10.89
2024-03-23T07:51:08.881Z,10.99
2024-03-23T07:53:38.449Z,10.49
2024-03-23T07:56:09.545Z,10.66
2024-03-23T07:58:38.639Z,10.52
2024-03-23T08:01:11.431Z,10.37
2024-03-23T08:03:41.948Z,10.04
2024-03-23T08:06:16.444Z,10.38
2024-03-23T08:08:47.769Z,10.57
2024-03-23T08:11:16.570Z,10.55
2024-03-23T08:13:46.833Z,10.45
2024-03-23T08:16:15.536Z,10.73
2024-03-23T08:18:43.997Z,10.60
2024-03-23T08:21:12.665Z,10.71
2024-03-23T08:23:41.449Z,10.36
2024-03-23T08:26:14.337Z,10.32
2024-03-23T08:28:42.685Z,10.63
2024-03-23T08:31:15.676Z,10.82
2024-03-23T08:33:44.423Z,11.01
2024-03-23T08:36:15.471Z,10.98
2024-03-23T08:38:43.998Z,10.71
2024-03-23T08:41:14.441Z,10.78
2024-03-23T08:43:44.999Z,10.94
2024-03-23T08:46:14.815Z,11.01
2024-03-23T08:48:46.659Z,11.06
2024-03-23T08:51:16.247Z,11.18
2024-03-23T08:53:45.727Z,11.30
2024-03-23T08:56:14.538Z,11.54
2024-03-23T08:58:42.861Z,11.72
2024-03-23T09:01:14.552Z,11.82
2024-03-23T09:03:43.183Z,11.96
2024-03-23T09:06:13.255Z,12.04
2024-03-23T09:08:43.034Z,12.18
2024-03-23T09:11:14.752Z,12.31
2024-03-23T09:13:43.075Z,12.38
2024-03-23T09:16:11.401Z,12.56
2024-03-23T09:18:39.939Z,12.67
2024-03-23T09:21:15.315Z,12.58
2024-03-23T09:23:47.563Z,12.65
2024-03-23T09:26:15.929Z,12.83
2024-03-23T09:28:44.457Z,12.86
2024-03-23T09:31:15.696Z,12.88
2024-03-23T09:33:45.097Z,12.99
2024-03-23T09:36:13.400Z,13.16
2024-03-23T09:38:42.531Z,13.31
2024-03-23T09:41:11.235Z,13.47
2024-03-23T09:43:39.346Z,13.61
2024-03-23T09:46:08.733Z,13.72
2024-03-23T09:48:37.584Z,13.88
2024-03-23T09:51:05.733Z,14.05
2024-03-23T09:53:34.842Z,14.17
2024-03-23T09:56:05.240Z,14.32
2024-03-23T09:58:33.959Z,14.46
2024-03-23T10:01:03.506Z,14.65
2024-03-23T10:03:31.894Z,14.73
2024-03-23T10:06:04.381Z,14.86
2024-03-23T10:08:36.253Z,14.89
2024-03-23T10:11:16.893Z,14.99
2024-03-23T10:13:47.629Z,15.17
2024-03-23T10:16:24.415Z,15.28
2024-03-23T10:18:52.583Z,15.31
2024-03-23T10:21:21.424Z,15.55
2024-03-23T10:23:50.971Z,15.56
2024-03-23T10:26:22.749Z,15.66
2024-03-23T10:28:54.969Z,15.89
2024-03-23T10:31:23.138Z,15.95
2024-03-23T10:33:51.319Z,16.09
2024-03-23T10:36:21.798Z,15.94
2024-03-23T10:38:53.129Z,15.92
2024-03-23T10:41:21.475Z,16.09
2024-03-23T10:43:51.018Z,16.27
2024-03-23T10:46:20.223Z,16.38
2024-03-23T10:48:50.329Z,16.53
2024-03-23T10:51:18.837Z,16.61
2024-03-23T10:53:48.796Z,16.61
2024-03-23T10:56:19.223Z,16.23
2024-03-23T10:58:50.833Z,16.22
2024-03-23T11:01:19.793Z,16.09
2024-03-23T11:03:48.756Z,15.93
2024-03-23T11:06:37.880Z,15.90
2024-03-23T11:09:35.102Z,16.05
2024-03-23T11:12:19.196Z,16.32
2024-03-23T11:14:50.421Z,16.39
2024-03-23T11:17:22.891Z,16.46
2024-03-23T11:20:12.803Z,16.61
2024-03-23T11:22:48.731Z,16.75
2024-03-23T11:25:22.251Z,16.87
2024-03-23T11:28:12.827Z,16.94
2024-03-23T11:30:41.083Z,16.92
2024-03-23T11:33:09.662Z,17.06
2024-03-23T11:35:42.061Z,17.12
2024-03-23T11:38:21.358Z,17.07
2024-03-23T11:40:50.853Z,16.77
2024-03-23T11:43:20.878Z,16.81
2024-03-23T11:45:54.285Z,16.91
2024-03-23T11:48:24.488Z,16.58
2024-03-23T11:50:58.567Z,16.58
2024-03-23T11:53:30.047Z,16.80
2024-03-23T11:56:01.587Z,16.92
2024-03-23T11:58:29.803Z,16.94
2024-03-23T12:01:03.100Z,16.63
2024-03-23T12:03:34.084Z,16.75
2024-03-23T12:06:05.040Z,16.87
2024-03-23T12:08:34.477Z,17.01
2024-03-23T12:11:16.378Z,17.05
2024-03-23T12:13:47.560Z,17.11
2024-03-23T12:16:25.788Z,17.07
2024-03-23T12:18:53.919Z,17.08
2024-03-23T12:21:23.834Z,17.15
2024-03-23T12:23:53.068Z,17.18
2024-03-23T12:26:21.742Z,17.25
2024-03-23T12:28:50.149Z,17.10
2024-03-23T12:31:18.664Z,17.05
2024-03-23T12:33:47.240Z,17.05
2024-03-23T12:36:15.875Z,17.10
2024-03-23T12:38:45.784Z,17.07
2024-03-23T12:41:14.063Z,17.14
2024-03-23T12:43:42.197Z,17.05
2024-03-23T12:46:12.911Z,16.78
2024-03-23T12:48:41.326Z,16.71
2024-03-23T12:51:09.966Z,16.90
2024-03-23T12:53:38.431Z,17.04
2024-03-23T12:56:06.941Z,17.01
2024-03-23T12:58:35.046Z,17.04
2024-03-23T13:01:03.540Z,17.10
2024-03-23T13:03:31.807Z,17.16
2024-03-23T13:06:00.383Z,17.14
2024-03-23T13:08:28.954Z,17.22
2024-03-23T13:10:57.231Z,17.28
2024-03-23T13:13:25.907Z,17.29
2024-03-23T13:15:55.034Z,17.37
2024-03-23T13:18:23.390Z,17.48
2024-03-23T13:20:51.941Z,17.48
2024-03-23T13:23:20.427Z,17.36
2024-03-23T13:25:56.540Z,17.36
2024-03-23T13:28:24.952Z,17.33
2024-03-23T13:30:59.041Z,17.38
2024-03-23T13:33:27.367Z,17.44
2024-03-23T13:35:57.461Z,17.49
2024-03-23T13:38:26.142Z,17.53
2024-03-23T13:40:59.005Z,17.60
2024-03-23T13:43:29.399Z,17.63
2024-03-23T13:46:00.493Z,17.56
2024-03-23T13:48:30.772Z,17.48
2024-03-23T13:51:00.093Z,17.40
2024-03-23T13:53:28.906Z,17.15
2024-03-23T13:55:57.969Z,17.15
2024-03-23T13:58:26.830Z,17.29
2024-03-23T14:00:58.359Z,17.35
2024-03-23T14:03:26.911Z,17.42
2024-03-23T14:05:57.716Z,17.47
2024-03-23T14:08:26.150Z,17.55
2024-03-23T14:10:54.617Z,17.61
2024-03-23T14:13:22.951Z,17.69
2024-03-23T14:15:55.031Z,17.66
2024-03-23T14:18:24.151Z,17.60
2024-03-23T14:20:53.360Z,17.57
2024-03-23T14:23:21.908Z,17.59
2024-03-23T14:25:50.576Z,17.68
2024-03-23T14:28:19.050Z,17.78
2024-03-23T14:30:47.193Z,17.83
2024-03-23T14:33:15.476Z,17.79
2024-03-23T14:35:43.833Z,17.80
2024-03-23T14:38:12.239Z,17.80
2024-03-23T14:40:40.681Z,17.81
2024-03-23T14:43:08.780Z,17.77
2024-03-23T14:45:37.998Z,17.64
2024-03-23T14:48:06.536Z,17.59
2024-03-23T14:50:37.281Z,17.56
2024-03-23T14:53:05.458Z,17.59
2024-03-23T14:55:33.734Z,17.61
2024-03-23T14:58:02.641Z,17.60
2024-03-23T15:00:31.015Z,17.62
2024-03-23T15:03:02.571Z,17.57
2024-03-23T15:05:30.919Z,17.45
2024-03-23T15:07:59.610Z,17.33
2024-03-23T15:10:28.138Z,17.31
2024-03-23T15:12:56.471Z,17.30
2024-03-23T15:15:24.730Z,17.26
2024-03-23T15:17:53.324Z,17.22
2024-03-23T15:20:21.680Z,17.21
2024-03-23T15:22:50.091Z,17.20
2024-03-23T15:25:19.063Z,17.17
2024-03-23T15:27:51.543Z,17.12
2024-03-23T15:30:20.370Z,17.05
2024-03-23T15:32:49.091Z,16.96
2024-03-23T15:35:17.285Z,16.91
2024-03-23T15:37:45.256Z,16.87
2024-03-23T15:40:14.689Z,16.83
2024-03-23T15:42:43.567Z,16.77
2024-03-23T15:45:11.577Z,16.68
2024-03-23T15:47:40.163Z,16.60
2024-03-23T15:50:09.993Z,16.54
2024-03-23T15:52:38.754Z,16.47
2024-03-23T15:55:08.025Z,16.40
2024-03-23T15:57:36.132Z,16.31
2024-03-23T16:00:05.263Z,16.22
2024-03-23T16:02:43.012Z,16.09
2024-03-23T16:05:12.550Z,15.98
2024-03-23T16:07:40.660Z,15.89
2024-03-23T16:10:10.415Z,15.83
2024-03-23T16:12:39.134Z,15.73
2024-03-23T16:15:07.489Z,15.65
2024-03-23T16:17:36.759Z,15.58
2024-03-23T16:20:05.684Z,15.53
2024-03-23T16:22:33.953Z,15.43
2024-03-23T16:25:02.378Z,15.37
2024-03-23T16:27:30.462Z,15.31
2024-03-23T16:29:59.611Z,15.24
2024-03-23T16:32:32.747Z,15.17
2024-03-23T16:35:02.525Z,15.08
2024-03-23T16:37:30.812Z,15.00
2024-03-23T16:39:58.793Z,14.92
2024-03-23T16:42:26.664Z,14.83
2024-03-23T16:44:54.539Z,14.74
2024-03-23T16:47:23.244Z,14.66
2024-03-23T16:49:53.771Z,14.58
2024-03-23T16:52:24.243Z,14.52
2024-03-23T16:54:52.445Z,14.47
2024-03-23T16:57:20.820Z,14.42
2024-03-23T16:59:49.037Z,14.38
2024-03-23T17:02:17.298Z,14.31
2024-03-23T17:04:45.698Z,14.28
2024-03-23T17:07:13.869Z,14.24
2024-03-23T17:09:49.454Z,14.19
2024-03-23T17:12:18.436Z,14.15
2024-03-23T17:14:46.341Z,14.10
2024-03-23T17:17:14.339Z,14.06
2024-03-23T17:19:42.261Z,14.01
2024-03-23T17:22:10.192Z,13.96
2024-03-23T17:24:38.519Z,13.91
2024-03-23T17:27:06.491Z,13.86
2024-03-23T17:29:34.550Z,13.81
2024-03-23T17:32:03.560Z,13.74
2024-03-23T17:34:31.800Z,13.69
2024-03-23T17:36:59.936Z,13.63
2024-03-23T17:39:28.222Z,13.59
2024-03-23T17:41:56.397Z,13.53
2024-03-23T17:44:25.373Z,13.49
2024-03-23T17:46:53.502Z,13.48
2024-03-23T17:49:22.024Z,13.45
2024-03-23T17:51:50.455Z,13.43
2024-03-23T17:54:20.835Z,13.40
2024-03-23T17:56:49.448Z,13.36
2024-03-23T17:59:17.537Z,13.33
2024-03-23T18:01:45.801Z,13.31
2024-03-23T18:04:14.399Z,13.29
2024-03-23T18:06:43.042Z,13.27
2024-03-23T18:09:11.571Z,13.25
2024-03-23T18:11:39.922Z,13.22
2024-03-23T18:14:08.092Z,13.20
2024-03-23T18:16:36.751Z,13.18
2024-03-23T18:19:06.079Z,13.14
2024-03-23T18:21:34.239Z,13.11
2024-03-23T18:24:02.838Z,13.09
2024-03-23T18:26:31.402Z,13.07
2024-03-23T18:28:59.863Z,13.08
2024-03-23T18:31:27.990Z,13.07
2024-03-23T18:33:58.177Z,13.06
2024-03-23T18:36:26.327Z,13.03
2024-03-23T18:38:56.070Z,13.00
2024-03-23T18:41:24.473Z,12.98
2024-03-23T18:43:52.849Z,12.95
2024-03-23T18:46:21.088Z,12.92
2024-03-23T18:48:52.073Z,12.88
2024-03-23T18:51:21.345Z,12.85
2024-03-23T18:53:49.840Z,12.81
2024-03-23T18:56:17.988Z,12.77
2024-03-23T18:58:46.084Z,12.74
2024-03-23T19:01:16.979Z,12.71
2024-03-23T19:03:45.020Z,12.67
2024-03-23T19:06:13.267Z,12.63
2024-03-23T19:08:41.774Z,12.61
2024-03-23T19:11:10.323Z,12.57
2024-03-23T19:13:38.485Z,12.51
2024-03-23T19:16:07.186Z,12.47
2024-03-23T19:18:35.569Z,12.42
2024-03-23T19:21:04.240Z,12.39
2024-03-23T19:23:35.433Z,12.35
2024-03-23T19:26:05.242Z,12.32
2024-03-23T19:28:33.961Z,12.29
2024-03-23T19:31:03.971Z,12.24
2024-03-23T19:33:37.101Z,12.19
2024-03-23T19:36:05.371Z,12.14
2024-03-23T19:38:33.515Z,12.10
2024-03-23T19:41:01.756Z,12.05
2024-03-23T19:43:31.294Z,12.00
2024-03-23T19:46:05.484Z,11.98
2024-03-23T19:48:33.862Z,11.97
2024-03-23T19:51:02.971Z,11.94
2024-03-23T19:53:31.068Z,11.90
2024-03-23T19:56:01.869Z,11.86
2024-03-23T19:58:30.709Z,11.81
2024-03-23T20:01:24.627Z,11.77
2024-03-23T20:03:55.439Z,11.72
2024-03-23T20:06:24.902Z,11.68
2024-03-23T20:08:53.375Z,11.66
2024-03-23T20:11:25.302Z,11.63
2024-03-23T20:13:53.471Z,11.58
2024-03-23T20:16:24.099Z,11.55
2024-03-23T20:18:56.308Z,11.53
2024-03-23T20:21:24.583Z,11.50
2024-03-23T20:23:53.173Z,11.46
2024-03-23T20:26:23.615Z,11.45
2024-03-23T20:28:52.812Z,11.46
2024-03-23T20:31:21.233Z,11.44
2024-03-23T20:33:49.596Z,11.39
2024-03-23T20:36:19.869Z,11.34
2024-03-23T20:38:48.103Z,11.27
2024-03-23T20:41:17.407Z,11.23
2024-03-23T20:43:48.139Z,11.18
2024-03-23T20:46:16.946Z,11.14
2024-03-23T20:48:50.455Z,11.10
2024-03-23T20:51:20.399Z,11.08
2024-03-23T20:53:49.823Z,11.05
2024-03-23T20:56:19.286Z,11.02
2024-03-23T20:58:47.715Z,10.99
2024-03-23T21:01:16.836Z,10.94
2024-03-23T21:03:45.068Z,10.90
2024-03-23T21:06:12.995Z,10.85
2024-03-23T21:08:41.173Z,10.82
2024-03-23T21:11:09.534Z,10.78
2024-03-23T21:13:37.578Z,10.75
2024-03-23T21:16:05.766Z,10.72
2024-03-23T21:18:34.588Z,10.67
2024-03-23T21:21:04.718Z,10.60
2024-03-23T21:23:33.594Z,10.58
2024-03-23T21:26:04.162Z,10.57
2024-03-23T21:28:32.510Z,10.56
2024-03-23T21:31:05.437Z,10.53
2024-03-23T21:33:37.276Z,10.51
2024-03-23T21:36:07.625Z,10.51
2024-03-23T21:38:36.256Z,10.49
2024-03-23T21:41:04.974Z,10.46
2024-03-23T21:43:33.394Z,10.45
2024-03-23T21:46:05.831Z,10.46
2024-03-23T21:48:36.799Z,10.50
2024-03-23T21:51:07.017Z,10.53
2024-03-23T21:53:35.888Z,10.54
2024-03-23T21:56:05.218Z,10.56
2024-03-23T21:58:33.890Z,10.58
2024-03-23T22:01:06.246Z,10.59
2024-03-23T22:03:35.132Z,10.60
2024-03-23T22:06:03.692Z,10.62
2024-03-23T22:08:32.549Z,10.64
2024-03-23T22:11:01.038Z,10.66
2024-03-23T22:13:30.107Z,10.68
2024-03-23T22:15:59.803Z,10.69
2024-03-23T22:18:28.428Z,10.66
2024-03-23T22:20:59.600Z,10.57
2024-03-23T22:23:28.534Z,10.50
2024-03-23T22:26:00.228Z,10.49
2024-03-23T22:28:29.322Z,10.50
2024-03-23T22:31:03.036Z,10.51
2024-03-23T22:33:32.502Z,10.50
2024-03-23T22:36:01.515Z,10.50
2024-03-23T22:38:29.726Z,10.50
2024-03-23T22:40:58.704Z,10.48
2024-03-23T22:43:28.233Z,10.48
2024-03-23T22:46:00.897Z,10.49
2024-03-23T22:48:31.082Z,10.49
2024-03-23T22:51:02.654Z,10.51
2024-03-23T22:53:31.202Z,10.53
2024-03-23T22:55:59.785Z,10.55
2024-03-23T22:58:28.679Z,10.55
2024-03-23T23:00:59.442Z,10.53
2024-03-23T23:03:28.028Z,10.53
2024-03-23T23:06:01.829Z,10.53
2024-03-23T23:08:30.528Z,10.53
2024-03-23T23:10:59.787Z,10.54
2024-03-23T23:13:28.280Z,10.53
2024-03-23T23:15:57.046Z,10.54
2024-03-23T23:18:26.229Z,10.54
2024-03-23T23:20:56.296Z,10.53
2024-03-23T23:23:25.395Z,10.52
2024-03-23T23:25:57.917Z,10.51
2024-03-23T23:28:26.686Z,10.48
2024-03-23T23:31:02.928Z,10.44
2024-03-23T23:33:31.854Z,10.44
2024-03-23T23:36:01.039Z,10.43
2024-03-23T23:38:29.552Z,10.40
2024-03-23T23:40:58.165Z,10.37
2024-03-23T23:43:26.908Z,10.36
2024-03-23T23:45:56.351Z,10.39
2024-03-23T23:48:24.877Z,10.43
2024-03-23T23:50:53.313Z,10.47
2024-03-23T23:53:24.856Z,10.47
2024-03-23T23:55:53.356Z,10.46
2024-03-23T23:58:21.985Z,10.46
